sensor_id;sensor_type;location;lat;lon;timestamp;P1;durP1;ratioP1;P2;durP2;ratioP2
49510;SDS011;35413;48.776;9.204;2022-07-26T00:00:26;1.77;;;1.20;;
49510;SDS011;35413;48.776;9.204;2022-07-26T00:02:51;3.05;;;1.10;;
49510;SDS011;35413;48.776;9.204;2022-07-26T00:05:17;2.10;;;1.40;;
49510;SDS011;35413;48.776;9.204;2022-07-26T00:07:44;3.15;;;1.13;;
49510;SDS011;35413;48.776;9.204;2022-07-26T00:10:10;5.18;;;1.30;;
49510;SDS011;35413;48.776;9.204;2022-07-26T00:12:37;3.97;;;1.30;;
49510;SDS011;35413;48.776;9.204;2022-07-26T00:15:04;2.80;;;1.25;;
49510;SDS011;35413;48.776;9.204;2022-07-26T00:17:31;4.25;;;1.20;;
49510;SDS011;35413;48.776;9.204;2022-07-26T00:19:56;2.63;;;1.00;;
49510;SDS011;35413;48.776;9.204;2022-07-26T00:22:23;1.98;;;0.98;;
49510;SDS011;35413;48.776;9.204;2022-07-26T00:24:58;1.52;;;0.90;;
49510;SDS011;35413;48.776;9.204;2022-07-26T00:27:24;4.80;;;1.25;;
49510;SDS011;35413;48.776;9.204;2022-07-26T00:29:49;1.20;;;0.80;;
49510;SDS011;35413;48.776;9.204;2022-07-26T00:32:15;2.13;;;1.02;;
49510;SDS011;35413;48.776;9.204;2022-07-26T00:34:41;1.42;;;0.90;;
49510;SDS011;35413;48.776;9.204;2022-07-26T00:37:07;1.50;;;1.00;;
49510;SDS011;35413;48.776;9.204;2022-07-26T00:39:32;2.65;;;1.00;;
49510;SDS011;35413;48.776;9.204;2022-07-26T00:41:58;2.38;;;1.08;;
49510;SDS011;35413;48.776;9.204;2022-07-26T00:44:23;2.83;;;0.93;;
49510;SDS011;35413;48.776;9.204;2022-07-26T00:46:49;2.88;;;1.70;;
49510;SDS011;35413;48.776;9.204;2022-07-26T00:49:15;3.85;;;1.98;;
49510;SDS011;35413;48.776;9.204;2022-07-26T00:51:41;2.22;;;1.10;;
49510;SDS011;35413;48.776;9.204;2022-07-26T00:54:07;1.67;;;0.88;;
49510;SDS011;35413;48.776;9.204;2022-07-26T00:56:33;2.63;;;1.05;;
49510;SDS011;35413;48.776;9.204;2022-07-26T00:58:59;1.52;;;1.02;;
49510;SDS011;35413;48.776;9.204;2022-07-26T01:01:25;3.55;;;1.10;;
49510;SDS011;35413;48.776;9.204;2022-07-26T01:03:52;3.92;;;1.23;;
49510;SDS011;35413;48.776;9.204;2022-07-26T01:06:18;0.85;;;0.60;;
49510;SDS011;35413;48.776;9.204;2022-07-26T01:08:45;2.03;;;1.00;;
49510;SDS011;35413;48.776;9.204;2022-07-26T01:11:10;2.00;;;1.10;;
49510;SDS011;35413;48.776;9.204;2022-07-26T01:13:36;3.10;;;1.10;;
49510;SDS011;35413;48.776;9.204;2022-07-26T01:16:09;1.65;;;1.00;;
49510;SDS011;35413;48.776;9.204;2022-07-26T01:18:34;1.70;;;0.93;;
49510;SDS011;35413;48.776;9.204;2022-07-26T01:21:00;1.67;;;0.90;;
49510;SDS011;35413;48.776;9.204;2022-07-26T01:23:28;1.95;;;0.82;;
49510;SDS011;35413;48.776;9.204;2022-07-26T01:25:55;1.15;;;0.80;;
49510;SDS011;35413;48.776;9.204;2022-07-26T01:28:21;2.28;;;0.80;;
49510;SDS011;35413;48.776;9.204;2022-07-26T01:30:47;1.75;;;0.90;;
49510;SDS011;35413;48.776;9.204;2022-07-26T01:33:13;3.13;;;0.90;;
49510;SDS011;35413;48.776;9.204;2022-07-26T01:35:38;1.95;;;0.80;;
49510;SDS011;35413;48.776;9.204;2022-07-26T01:38:04;2.30;;;0.88;;
49510;SDS011;35413;48.776;9.204;2022-07-26T01:40:30;1.67;;;1.10;;
49510;SDS011;35413;48.776;9.204;2022-07-26T01:42:55;1.55;;;1.15;;
49510;SDS011;35413;48.776;9.204;2022-07-26T01:45:21;1.95;;;1.00;;
49510;SDS011;35413;48.776;9.204;2022-07-26T01:47:46;1.63;;;0.75;;
49510;SDS011;35413;48.776;9.204;2022-07-26T01:50:14;2.00;;;0.88;;
49510;SDS011;35413;48.776;9.204;2022-07-26T01:52:41;2.53;;;1.00;;
49510;SDS011;35413;48.776;9.204;2022-07-26T01:55:07;1.25;;;0.80;;
49510;SDS011;35413;48.776;9.204;2022-07-26T01:57:33;1.60;;;0.90;;
49510;SDS011;35413;48.776;9.204;2022-07-26T01:59:59;2.75;;;1.08;;
49510;SDS011;35413;48.776;9.204;2022-07-26T02:02:25;0.75;;;0.70;;
49510;SDS011;35413;48.776;9.204;2022-07-26T02:04:50;2.95;;;0.98;;
49510;SDS011;35413;48.776;9.204;2022-07-26T02:07:22;2.72;;;1.10;;
49510;SDS011;35413;48.776;9.204;2022-07-26T02:09:48;1.63;;;1.23;;
49510;SDS011;35413;48.776;9.204;2022-07-26T02:12:14;1.45;;;0.80;;
49510;SDS011;35413;48.776;9.204;2022-07-26T02:14:39;0.90;;;0.68;;
49510;SDS011;35413;48.776;9.204;2022-07-26T02:17:05;2.80;;;1.17;;
49510;SDS011;35413;48.776;9.204;2022-07-26T02:19:31;1.35;;;0.80;;
49510;SDS011;35413;48.776;9.204;2022-07-26T02:21:56;2.95;;;0.93;;
49510;SDS011;35413;48.776;9.204;2022-07-26T02:24:23;1.52;;;1.13;;
49510;SDS011;35413;48.776;9.204;2022-07-26T02:26:52;1.70;;;0.75;;
49510;SDS011;35413;48.776;9.204;2022-07-26T02:29:18;1.48;;;1.05;;
49510;SDS011;35413;48.776;9.204;2022-07-26T02:31:44;6.13;;;0.80;;
49510;SDS011;35413;48.776;9.204;2022-07-26T02:34:09;1.38;;;0.70;;
49510;SDS011;35413;48.776;9.204;2022-07-26T02:36:35;1.00;;;0.90;;
49510;SDS011;35413;48.776;9.204;2022-07-26T02:39:01;2.92;;;0.82;;
49510;SDS011;35413;48.776;9.204;2022-07-26T02:41:28;1.55;;;0.80;;
49510;SDS011;35413;48.776;9.204;2022-07-26T02:43:53;1.65;;;1.00;;
49510;SDS011;35413;48.776;9.204;2022-07-26T02:46:19;1.70;;;0.80;;
49510;SDS011;35413;48.776;9.204;2022-07-26T02:48:45;1.63;;;1.00;;
49510;SDS011;35413;48.776;9.204;2022-07-26T02:51:10;2.75;;;0.80;;
49510;SDS011;35413;48.776;9.204;2022-07-26T02:53:36;2.08;;;1.00;;
49510;SDS011;35413;48.776;9.204;2022-07-26T02:56:01;1.00;;;0.70;;
49510;SDS011;35413;48.776;9.204;2022-07-26T02:58:27;1.40;;;0.90;;
49510;SDS011;35413;48.776;9.204;2022-07-26T03:00:53;2.60;;;1.10;;
49510;SDS011;35413;48.776;9.204;2022-07-26T03:03:18;0.93;;;0.75;;
49510;SDS011;35413;48.776;9.204;2022-07-26T03:05:44;1.50;;;0.80;;
49510;SDS011;35413;48.776;9.204;2022-07-26T03:08:10;1.13;;;0.70;;
49510;SDS011;35413;48.776;9.204;2022-07-26T03:10:35;1.05;;;0.82;;
49510;SDS011;35413;48.776;9.204;2022-07-26T03:13:01;1.10;;;0.80;;
49510;SDS011;35413;48.776;9.204;2022-07-26T03:15:27;1.30;;;0.90;;
49510;SDS011;35413;48.776;9.204;2022-07-26T03:17:52;1.13;;;0.70;;
49510;SDS011;35413;48.776;9.204;2022-07-26T03:20:19;1.00;;;0.75;;
49510;SDS011;35413;48.776;9.204;2022-07-26T03:22:45;0.82;;;0.75;;
49510;SDS011;35413;48.776;9.204;2022-07-26T03:25:10;1.23;;;0.80;;
49510;SDS011;35413;48.776;9.204;2022-07-26T03:27:36;2.15;;;0.70;;
49510;SDS011;35413;48.776;9.204;2022-07-26T03:30:02;0.73;;;0.60;;
49510;SDS011;35413;48.776;9.204;2022-07-26T03:32:28;0.80;;;0.70;;
49510;SDS011;35413;48.776;9.204;2022-07-26T03:34:54;2.03;;;0.70;;
49510;SDS011;35413;48.776;9.204;2022-07-26T03:37:19;1.67;;;0.73;;
49510;SDS011;35413;48.776;9.204;2022-07-26T03:39:45;7.35;;;1.40;;
49510;SDS011;35413;48.776;9.204;2022-07-26T03:42:11;1.00;;;0.70;;
49510;SDS011;35413;48.776;9.204;2022-07-26T03:44:36;2.00;;;0.70;;
49510;SDS011;35413;48.776;9.204;2022-07-26T03:47:02;0.80;;;0.70;;
49510;SDS011;35413;48.776;9.204;2022-07-26T03:49:28;2.00;;;0.70;;
49510;SDS011;35413;48.776;9.204;2022-07-26T03:51:53;1.40;;;0.90;;
49510;SDS011;35413;48.776;9.204;2022-07-26T03:54:19;1.70;;;0.73;;
49510;SDS011;35413;48.776;9.204;2022-07-26T03:56:46;2.30;;;0.73;;
49510;SDS011;35413;48.776;9.204;2022-07-26T03:59:11;1.10;;;0.82;;
49510;SDS011;35413;48.776;9.204;2022-07-26T04:01:38;1.45;;;0.68;;
49510;SDS011;35413;48.776;9.204;2022-07-26T04:04:06;1.60;;;0.80;;
49510;SDS011;35413;48.776;9.204;2022-07-26T04:06:33;1.02;;;0.63;;
49510;SDS011;35413;48.776;9.204;2022-07-26T04:08:59;1.17;;;0.63;;
49510;SDS011;35413;48.776;9.204;2022-07-26T04:11:24;0.70;;;0.70;;
49510;SDS011;35413;48.776;9.204;2022-07-26T04:13:50;0.90;;;0.80;;
49510;SDS011;35413;48.776;9.204;2022-07-26T04:16:16;1.02;;;0.80;;
49510;SDS011;35413;48.776;9.204;2022-07-26T04:18:41;1.15;;;0.85;;
49510;SDS011;35413;48.776;9.204;2022-07-26T04:21:07;3.53;;;1.00;;
49510;SDS011;35413;48.776;9.204;2022-07-26T04:23:33;1.17;;;0.88;;
49510;SDS011;35413;48.776;9.204;2022-07-26T04:25:58;1.98;;;1.10;;
49510;SDS011;35413;48.776;9.204;2022-07-26T04:28:24;2.33;;;1.00;;
49510;SDS011;35413;48.776;9.204;2022-07-26T04:30:52;1.35;;;0.85;;
49510;SDS011;35413;48.776;9.204;2022-07-26T04:33:22;1.10;;;0.85;;
49510;SDS011;35413;48.776;9.204;2022-07-26T04:35:49;2.25;;;0.90;;
49510;SDS011;35413;48.776;9.204;2022-07-26T04:38:14;1.13;;;0.80;;
49510;SDS011;35413;48.776;9.204;2022-07-26T04:40:40;1.80;;;0.90;;
49510;SDS011;35413;48.776;9.204;2022-07-26T04:43:06;0.75;;;0.70;;
49510;SDS011;35413;48.776;9.204;2022-07-26T04:45:32;2.13;;;0.73;;
49510;SDS011;35413;48.776;9.204;2022-07-26T04:47:57;1.30;;;1.00;;
49510;SDS011;35413;48.776;9.204;2022-07-26T04:50:23;2.90;;;1.10;;
49510;SDS011;35413;48.776;9.204;2022-07-26T04:52:52;1.73;;;1.27;;
49510;SDS011;35413;48.776;9.204;2022-07-26T04:55:18;2.45;;;0.90;;
49510;SDS011;35413;48.776;9.204;2022-07-26T04:57:45;1.02;;;0.70;;
49510;SDS011;35413;48.776;9.204;2022-07-26T05:00:12;1.33;;;0.90;;
49510;SDS011;35413;48.776;9.204;2022-07-26T05:02:40;1.50;;;1.00;;
49510;SDS011;35413;48.776;9.204;2022-07-26T05:05:06;1.20;;;0.80;;
49510;SDS011;35413;48.776;9.204;2022-07-26T05:07:45;2.08;;;1.00;;
49510;SDS011;35413;48.776;9.204;2022-07-26T05:10:15;1.55;;;1.10;;
49510;SDS011;35413;48.776;9.204;2022-07-26T05:12:42;1.90;;;1.10;;
49510;SDS011;35413;48.776;9.204;2022-07-26T05:15:08;2.10;;;0.90;;
49510;SDS011;35413;48.776;9.204;2022-07-26T05:17:37;2.33;;;1.48;;
49510;SDS011;35413;48.776;9.204;2022-07-26T05:20:05;3.50;;;1.60;;
49510;SDS011;35413;48.776;9.204;2022-07-26T05:22:32;1.20;;;1.00;;
49510;SDS011;35413;48.776;9.204;2022-07-26T05:24:58;4.07;;;1.30;;
49510;SDS011;35413;48.776;9.204;2022-07-26T05:27:24;2.40;;;1.02;;
49510;SDS011;35413;48.776;9.204;2022-07-26T05:29:49;1.42;;;1.13;;
49510;SDS011;35413;48.776;9.204;2022-07-26T05:32:15;1.25;;;1.05;;
49510;SDS011;35413;48.776;9.204;2022-07-26T05:34:41;2.63;;;1.17;;
49510;SDS011;35413;48.776;9.204;2022-07-26T05:37:06;2.08;;;1.33;;
49510;SDS011;35413;48.776;9.204;2022-07-26T05:39:32;2.10;;;1.35;;
49510;SDS011;35413;48.776;9.204;2022-07-26T05:41:58;3.80;;;1.30;;
49510;SDS011;35413;48.776;9.204;2022-07-26T05:44:23;2.72;;;1.13;;
49510;SDS011;35413;48.776;9.204;2022-07-26T05:46:49;4.38;;;1.75;;
49510;SDS011;35413;48.776;9.204;2022-07-26T05:49:15;4.80;;;1.55;;
49510;SDS011;35413;48.776;9.204;2022-07-26T05:51:40;2.00;;;1.27;;
49510;SDS011;35413;48.776;9.204;2022-07-26T05:54:06;3.13;;;1.38;;
49510;SDS011;35413;48.776;9.204;2022-07-26T05:56:32;2.67;;;1.40;;
49510;SDS011;35413;48.776;9.204;2022-07-26T05:58:57;3.42;;;1.38;;
49510;SDS011;35413;48.776;9.204;2022-07-26T06:01:23;2.50;;;1.40;;
49510;SDS011;35413;48.776;9.204;2022-07-26T06:03:49;1.33;;;1.15;;
49510;SDS011;35413;48.776;9.204;2022-07-26T06:06:14;3.20;;;1.25;;
49510;SDS011;35413;48.776;9.204;2022-07-26T06:08:41;3.33;;;1.77;;
49510;SDS011;35413;48.776;9.204;2022-07-26T06:11:07;3.20;;;1.73;;
49510;SDS011;35413;48.776;9.204;2022-07-26T06:13:33;2.78;;;1.35;;
49510;SDS011;35413;48.776;9.204;2022-07-26T06:15:59;2.65;;;1.30;;
49510;SDS011;35413;48.776;9.204;2022-07-26T06:18:24;3.85;;;1.45;;
49510;SDS011;35413;48.776;9.204;2022-07-26T06:20:50;2.80;;;1.20;;
49510;SDS011;35413;48.776;9.204;2022-07-26T06:23:16;3.53;;;1.08;;
49510;SDS011;35413;48.776;9.204;2022-07-26T06:25:42;2.70;;;0.95;;
49510;SDS011;35413;48.776;9.204;2022-07-26T06:28:08;2.13;;;1.10;;
49510;SDS011;35413;48.776;9.204;2022-07-26T06:30:35;2.65;;;1.13;;
49510;SDS011;35413;48.776;9.204;2022-07-26T06:33:02;1.77;;;1.13;;
49510;SDS011;35413;48.776;9.204;2022-07-26T06:35:28;4.47;;;1.15;;
49510;SDS011;35413;48.776;9.204;2022-07-26T06:37:56;2.03;;;1.45;;
49510;SDS011;35413;48.776;9.204;2022-07-26T06:40:22;2.47;;;1.15;;
49510;SDS011;35413;48.776;9.204;2022-07-26T06:42:48;1.73;;;1.00;;
49510;SDS011;35413;48.776;9.204;2022-07-26T06:45:14;5.20;;;1.30;;
49510;SDS011;35413;48.776;9.204;2022-07-26T06:47:40;2.35;;;0.90;;
49510;SDS011;35413;48.776;9.204;2022-07-26T06:50:05;3.83;;;1.15;;
49510;SDS011;35413;48.776;9.204;2022-07-26T06:52:31;1.48;;;0.98;;
49510;SDS011;35413;48.776;9.204;2022-07-26T06:54:57;4.22;;;1.33;;
49510;SDS011;35413;48.776;9.204;2022-07-26T06:57:24;1.42;;;0.95;;
49510;SDS011;35413;48.776;9.204;2022-07-26T06:59:50;3.80;;;0.93;;
49510;SDS011;35413;48.776;9.204;2022-07-26T07:02:16;4.07;;;0.75;;
49510;SDS011;35413;48.776;9.204;2022-07-26T07:04:42;4.45;;;1.42;;
49510;SDS011;35413;48.776;9.204;2022-07-26T07:07:08;3.22;;;0.80;;
49510;SDS011;35413;48.776;9.204;2022-07-26T07:09:34;3.33;;;1.10;;
49510;SDS011;35413;48.776;9.204;2022-07-26T07:12:03;3.83;;;0.95;;
49510;SDS011;35413;48.776;9.204;2022-07-26T07:14:30;1.20;;;0.63;;
49510;SDS011;35413;48.776;9.204;2022-07-26T07:16:56;2.50;;;0.80;;
49510;SDS011;35413;48.776;9.204;2022-07-26T07:19:22;2.47;;;0.90;;
49510;SDS011;35413;48.776;9.204;2022-07-26T07:21:48;1.48;;;0.70;;
49510;SDS011;35413;48.776;9.204;2022-07-26T07:24:14;2.03;;;1.27;;
49510;SDS011;35413;48.776;9.204;2022-07-26T07:26:40;1.23;;;0.70;;
49510;SDS011;35413;48.776;9.204;2022-07-26T07:29:06;1.00;;;0.80;;
49510;SDS011;35413;48.776;9.204;2022-07-26T07:31:36;1.88;;;0.70;;
49510;SDS011;35413;48.776;9.204;2022-07-26T07:34:01;2.63;;;0.90;;
49510;SDS011;35413;48.776;9.204;2022-07-26T07:36:27;1.70;;;0.80;;
49510;SDS011;35413;48.776;9.204;2022-07-26T07:38:53;2.25;;;0.95;;
49510;SDS011;35413;48.776;9.204;2022-07-26T07:41:18;2.20;;;0.60;;
49510;SDS011;35413;48.776;9.204;2022-07-26T07:43:44;2.42;;;0.68;;
49510;SDS011;35413;48.776;9.204;2022-07-26T07:46:10;3.40;;;0.93;;
49510;SDS011;35413;48.776;9.204;2022-07-26T07:48:36;5.28;;;1.00;;
49510;SDS011;35413;48.776;9.204;2022-07-26T07:51:04;1.73;;;0.80;;
49510;SDS011;35413;48.776;9.204;2022-07-26T07:53:33;4.93;;;1.00;;
49510;SDS011;35413;48.776;9.204;2022-07-26T07:55:58;2.80;;;0.90;;
49510;SDS011;35413;48.776;9.204;2022-07-26T07:58:24;3.15;;;0.95;;
49510;SDS011;35413;48.776;9.204;2022-07-26T08:00:51;3.00;;;0.80;;
49510;SDS011;35413;48.776;9.204;2022-07-26T08:03:16;1.30;;;0.70;;
49510;SDS011;35413;48.776;9.204;2022-07-26T08:05:42;2.05;;;0.85;;
49510;SDS011;35413;48.776;9.204;2022-07-26T08:08:08;1.48;;;1.13;;
49510;SDS011;35413;48.776;9.204;2022-07-26T08:10:34;1.60;;;0.85;;
49510;SDS011;35413;48.776;9.204;2022-07-26T08:13:00;2.45;;;0.90;;
49510;SDS011;35413;48.776;9.204;2022-07-26T08:15:25;2.42;;;0.90;;
49510;SDS011;35413;48.776;9.204;2022-07-26T08:17:51;2.05;;;0.70;;
49510;SDS011;35413;48.776;9.204;2022-07-26T08:20:17;1.63;;;0.90;;
49510;SDS011;35413;48.776;9.204;2022-07-26T08:22:43;2.13;;;1.00;;
49510;SDS011;35413;48.776;9.204;2022-07-26T08:25:09;4.03;;;0.65;;
49510;SDS011;35413;48.776;9.204;2022-07-26T08:27:35;2.78;;;1.20;;
49510;SDS011;35413;48.776;9.204;2022-07-26T08:30:01;1.73;;;0.80;;
49510;SDS011;35413;48.776;9.204;2022-07-26T08:32:27;1.13;;;0.77;;
49510;SDS011;35413;48.776;9.204;2022-07-26T08:34:53;0.70;;;0.60;;
49510;SDS011;35413;48.776;9.204;2022-07-26T08:37:18;2.30;;;0.80;;
49510;SDS011;35413;48.776;9.204;2022-07-26T08:39:45;0.70;;;0.60;;
49510;SDS011;35413;48.776;9.204;2022-07-26T08:42:18;0.90;;;0.60;;
49510;SDS011;35413;48.776;9.204;2022-07-26T08:44:48;3.00;;;0.80;;
49510;SDS011;35413;48.776;9.204;2022-07-26T08:47:16;3.83;;;1.25;;
49510;SDS011;35413;48.776;9.204;2022-07-26T08:49:44;1.58;;;0.70;;
49510;SDS011;35413;48.776;9.204;2022-07-26T08:52:11;1.70;;;1.05;;
49510;SDS011;35413;48.776;9.204;2022-07-26T08:54:49;7.47;;;1.13;;
49510;SDS011;35413;48.776;9.204;2022-07-26T08:57:16;2.45;;;0.70;;
49510;SDS011;35413;48.776;9.204;2022-07-26T08:59:43;1.75;;;0.73;;
49510;SDS011;35413;48.776;9.204;2022-07-26T09:02:09;1.42;;;0.73;;
49510;SDS011;35413;48.776;9.204;2022-07-26T09:04:41;1.05;;;0.70;;
49510;SDS011;35413;48.776;9.204;2022-07-26T09:07:09;1.85;;;0.70;;
49510;SDS011;35413;48.776;9.204;2022-07-26T09:09:59;2.70;;;0.85;;
49510;SDS011;35413;48.776;9.204;2022-07-26T09:12:27;1.33;;;0.70;;
49510;SDS011;35413;48.776;9.204;2022-07-26T09:14:54;1.33;;;0.82;;
49510;SDS011;35413;48.776;9.204;2022-07-26T09:17:21;2.03;;;0.73;;
49510;SDS011;35413;48.776;9.204;2022-07-26T09:20:03;1.63;;;0.60;;
49510;SDS011;35413;48.776;9.204;2022-07-26T09:22:36;0.73;;;0.60;;
49510;SDS011;35413;48.776;9.204;2022-07-26T09:25:05;1.15;;;0.68;;
49510;SDS011;35413;48.776;9.204;2022-07-26T09:27:44;3.53;;;0.90;;
49510;SDS011;35413;48.776;9.204;2022-07-26T09:30:10;1.95;;;0.73;;
49510;SDS011;35413;48.776;9.204;2022-07-26T09:32:36;2.00;;;0.55;;
49510;SDS011;35413;48.776;9.204;2022-07-26T09:35:09;1.67;;;0.57;;
49510;SDS011;35413;48.776;9.204;2022-07-26T09:37:37;1.23;;;0.70;;
49510;SDS011;35413;48.776;9.204;2022-07-26T09:40:05;2.53;;;0.50;;
49510;SDS011;35413;48.776;9.204;2022-07-26T09:42:32;1.35;;;0.85;;
49510;SDS011;35413;48.776;9.204;2022-07-26T09:44:58;1.02;;;0.57;;
49510;SDS011;35413;48.776;9.204;2022-07-26T09:47:41;3.08;;;0.75;;
49510;SDS011;35413;48.776;9.204;2022-07-26T09:50:24;0.90;;;0.57;;
49510;SDS011;35413;48.776;9.204;2022-07-26T09:58:00;3.13;;;0.63;;
49510;SDS011;35413;48.776;9.204;2022-07-26T10:00:28;1.63;;;0.80;;
49510;SDS011;35413;48.776;9.204;2022-07-26T10:02:55;1.95;;;0.85;;
49510;SDS011;35413;48.776;9.204;2022-07-26T10:05:20;1.60;;;0.70;;
49510;SDS011;35413;48.776;9.204;2022-07-26T10:07:50;2.42;;;0.50;;
49510;SDS011;35413;48.776;9.204;2022-07-26T10:10:24;1.42;;;0.70;;
49510;SDS011;35413;48.776;9.204;2022-07-26T10:12:52;1.15;;;0.52;;
49510;SDS011;35413;48.776;9.204;2022-07-26T10:16:00;1.52;;;0.70;;
49510;SDS011;35413;48.776;9.204;2022-07-26T10:18:08;1.58;;;0.60;;
49510;SDS011;35413;48.776;9.204;2022-07-26T10:20:36;2.35;;;0.60;;
49510;SDS011;35413;48.776;9.204;2022-07-26T10:25:52;0.93;;;0.85;;
49510;SDS011;35413;48.776;9.204;2022-07-26T10:28:24;3.22;;;1.17;;
49510;SDS011;35413;48.776;9.204;2022-07-26T10:30:51;2.63;;;0.68;;
49510;SDS011;35413;48.776;9.204;2022-07-26T10:33:41;1.27;;;0.50;;
49510;SDS011;35413;48.776;9.204;2022-07-26T10:36:32;1.55;;;0.77;;
49510;SDS011;35413;48.776;9.204;2022-07-26T10:41:34;2.35;;;0.65;;
49510;SDS011;35413;48.776;9.204;2022-07-26T10:49:39;0.70;;;0.50;;
49510;SDS011;35413;48.776;9.204;2022-07-26T10:57:23;0.90;;;0.80;;
49510;SDS011;35413;48.776;9.204;2022-07-26T10:59:49;1.58;;;0.70;;
49510;SDS011;35413;48.776;9.204;2022-07-26T11:02:18;2.00;;;0.70;;
49510;SDS011;35413;48.776;9.204;2022-07-26T11:04:45;1.63;;;0.50;;
49510;SDS011;35413;48.776;9.204;2022-07-26T11:07:11;1.45;;;1.35;;
49510;SDS011;35413;48.776;9.204;2022-07-26T11:09:37;0.88;;;0.55;;
49510;SDS011;35413;48.776;9.204;2022-07-26T11:12:19;1.25;;;0.60;;
49510;SDS011;35413;48.776;9.204;2022-07-26T11:14:45;2.15;;;0.60;;
49510;SDS011;35413;48.776;9.204;2022-07-26T11:17:24;1.33;;;0.50;;
49510;SDS011;35413;48.776;9.204;2022-07-26T11:19:56;1.52;;;0.50;;
49510;SDS011;35413;48.776;9.204;2022-07-26T11:22:32;1.00;;;0.50;;
49510;SDS011;35413;48.776;9.204;2022-07-26T11:24:58;2.47;;;0.60;;
49510;SDS011;35413;48.776;9.204;2022-07-26T11:27:24;0.77;;;0.60;;
49510;SDS011;35413;48.776;9.204;2022-07-26T11:29:49;1.25;;;0.70;;
49510;SDS011;35413;48.776;9.204;2022-07-26T11:32:19;0.88;;;0.70;;
49510;SDS011;35413;48.776;9.204;2022-07-26T11:34:47;0.98;;;0.68;;
49510;SDS011;35413;48.776;9.204;2022-07-26T11:37:25;1.77;;;0.60;;
49510;SDS011;35413;48.776;9.204;2022-07-26T11:39:51;1.65;;;0.80;;
49510;SDS011;35413;48.776;9.204;2022-07-26T11:42:17;1.77;;;0.80;;
49510;SDS011;35413;48.776;9.204;2022-07-26T11:44:44;2.13;;;0.60;;
49510;SDS011;35413;48.776;9.204;2022-07-26T11:47:11;0.95;;;0.65;;
49510;SDS011;35413;48.776;9.204;2022-07-26T11:49:38;1.60;;;0.70;;
49510;SDS011;35413;48.776;9.204;2022-07-26T11:52:04;0.95;;;0.60;;
49510;SDS011;35413;48.776;9.204;2022-07-26T11:54:31;1.50;;;0.82;;
49510;SDS011;35413;48.776;9.204;2022-07-26T11:57:09;0.55;;;0.50;;
49510;SDS011;35413;48.776;9.204;2022-07-26T11:59:36;0.50;;;0.47;;
49510;SDS011;35413;48.776;9.204;2022-07-26T12:02:04;0.93;;;0.50;;
49510;SDS011;35413;48.776;9.204;2022-07-26T12:04:32;0.63;;;0.55;;
49510;SDS011;35413;48.776;9.204;2022-07-26T12:07:06;3.13;;;0.82;;
49510;SDS011;35413;48.776;9.204;2022-07-26T12:14:54;1.25;;;0.50;;
49510;SDS011;35413;48.776;9.204;2022-07-26T12:17:22;0.55;;;0.52;;
49510;SDS011;35413;48.776;9.204;2022-07-26T12:19:48;0.70;;;0.60;;
49510;SDS011;35413;48.776;9.204;2022-07-26T12:22:14;1.83;;;0.70;;
49510;SDS011;35413;48.776;9.204;2022-07-26T12:27:17;0.90;;;0.60;;
49510;SDS011;35413;48.776;9.204;2022-07-26T12:32:35;0.57;;;0.50;;
49510;SDS011;35413;48.776;9.204;2022-07-26T12:37:28;1.02;;;0.60;;
49510;SDS011;35413;48.776;9.204;2022-07-26T12:39:59;0.70;;;0.60;;
49510;SDS011;35413;48.776;9.204;2022-07-26T12:42:29;1.20;;;0.50;;
49510;SDS011;35413;48.776;9.204;2022-07-26T12:44:56;1.90;;;0.57;;
49510;SDS011;35413;48.776;9.204;2022-07-26T12:47:23;0.93;;;0.60;;
49510;SDS011;35413;48.776;9.204;2022-07-26T12:49:49;0.88;;;0.80;;
49510;SDS011;35413;48.776;9.204;2022-07-26T12:52:16;2.05;;;0.63;;
49510;SDS011;35413;48.776;9.204;2022-07-26T12:54:44;0.75;;;0.50;;
49510;SDS011;35413;48.776;9.204;2022-07-26T12:57:11;0.50;;;0.40;;
49510;SDS011;35413;48.776;9.204;2022-07-26T12:59:37;2.05;;;0.50;;
49510;SDS011;35413;48.776;9.204;2022-07-26T13:02:02;0.82;;;0.57;;
49510;SDS011;35413;48.776;9.204;2022-07-26T13:04:28;1.02;;;0.50;;
49510;SDS011;35413;48.776;9.204;2022-07-26T13:06:55;0.93;;;0.45;;
49510;SDS011;35413;48.776;9.204;2022-07-26T13:09:21;1.00;;;0.50;;
49510;SDS011;35413;48.776;9.204;2022-07-26T13:11:47;1.88;;;0.60;;
49510;SDS011;35413;48.776;9.204;2022-07-26T13:14:12;1.00;;;0.73;;
49510;SDS011;35413;48.776;9.204;2022-07-26T13:16:38;1.50;;;0.60;;
49510;SDS011;35413;48.776;9.204;2022-07-26T13:19:04;0.73;;;0.70;;
49510;SDS011;35413;48.776;9.204;2022-07-26T13:21:30;0.80;;;0.40;;
49510;SDS011;35413;48.776;9.204;2022-07-26T13:23:56;1.35;;;0.50;;
49510;SDS011;35413;48.776;9.204;2022-07-26T13:26:22;0.60;;;0.50;;
49510;SDS011;35413;48.776;9.204;2022-07-26T13:28:48;1.48;;;0.50;;
49510;SDS011;35413;48.776;9.204;2022-07-26T13:31:13;1.40;;;0.50;;
49510;SDS011;35413;48.776;9.204;2022-07-26T13:33:41;0.60;;;0.50;;
49510;SDS011;35413;48.776;9.204;2022-07-26T13:36:06;0.93;;;0.55;;
49510;SDS011;35413;48.776;9.204;2022-07-26T13:38:32;2.65;;;0.40;;
49510;SDS011;35413;48.776;9.204;2022-07-26T13:41:01;1.48;;;0.77;;
49510;SDS011;35413;48.776;9.204;2022-07-26T13:43:27;4.00;;;0.60;;
49510;SDS011;35413;48.776;9.204;2022-07-26T13:45:56;1.20;;;0.65;;
49510;SDS011;35413;48.776;9.204;2022-07-26T13:48:22;0.60;;;0.50;;
49510;SDS011;35413;48.776;9.204;2022-07-26T13:50:48;1.10;;;0.65;;
49510;SDS011;35413;48.776;9.204;2022-07-26T13:53:14;0.52;;;0.50;;
49510;SDS011;35413;48.776;9.204;2022-07-26T13:55:40;0.68;;;0.47;;
49510;SDS011;35413;48.776;9.204;2022-07-26T13:58:06;1.35;;;0.40;;
49510;SDS011;35413;48.776;9.204;2022-07-26T14:00:31;1.60;;;0.60;;
49510;SDS011;35413;48.776;9.204;2022-07-26T14:02:57;0.50;;;0.50;;
49510;SDS011;35413;48.776;9.204;2022-07-26T14:05:25;1.85;;;0.50;;
49510;SDS011;35413;48.776;9.204;2022-07-26T14:07:52;0.52;;;0.40;;
49510;SDS011;35413;48.776;9.204;2022-07-26T14:10:18;1.60;;;0.50;;
49510;SDS011;35413;48.776;9.204;2022-07-26T14:12:45;1.08;;;0.50;;
49510;SDS011;35413;48.776;9.204;2022-07-26T14:15:12;0.98;;;0.55;;
49510;SDS011;35413;48.776;9.204;2022-07-26T14:17:38;0.50;;;0.40;;
49510;SDS011;35413;48.776;9.204;2022-07-26T14:20:03;1.23;;;0.60;;
49510;SDS011;35413;48.776;9.204;2022-07-26T14:22:30;1.20;;;0.50;;
49510;SDS011;35413;48.776;9.204;2022-07-26T14:24:56;1.25;;;0.43;;
49510;SDS011;35413;48.776;9.204;2022-07-26T14:27:22;1.30;;;0.50;;
49510;SDS011;35413;48.776;9.204;2022-07-26T14:29:48;0.52;;;0.47;;
49510;SDS011;35413;48.776;9.204;2022-07-26T14:32:13;1.33;;;0.50;;
49510;SDS011;35413;48.776;9.204;2022-07-26T14:34:39;0.60;;;0.57;;
49510;SDS011;35413;48.776;9.204;2022-07-26T14:37:05;0.60;;;0.45;;
49510;SDS011;35413;48.776;9.204;2022-07-26T14:39:31;0.98;;;0.57;;
49510;SDS011;35413;48.776;9.204;2022-07-26T14:41:58;0.55;;;0.52;;
49510;SDS011;35413;48.776;9.204;2022-07-26T14:44:24;1.58;;;0.70;;
49510;SDS011;35413;48.776;9.204;2022-07-26T14:46:50;1.33;;;0.57;;
49510;SDS011;35413;48.776;9.204;2022-07-26T14:49:17;1.15;;;0.50;;
49510;SDS011;35413;48.776;9.204;2022-07-26T14:51:42;0.60;;;0.40;;
49510;SDS011;35413;48.776;9.204;2022-07-26T14:54:08;1.25;;;0.60;;
49510;SDS011;35413;48.776;9.204;2022-07-26T14:56:36;1.65;;;0.55;;
49510;SDS011;35413;48.776;9.204;2022-07-26T14:59:01;1.95;;;0.60;;
49510;SDS011;35413;48.776;9.204;2022-07-26T15:01:27;1.00;;;0.50;;
49510;SDS011;35413;48.776;9.204;2022-07-26T15:03:53;2.83;;;0.70;;
49510;SDS011;35413;48.776;9.204;2022-07-26T15:06:18;4.40;;;0.75;;
49510;SDS011;35413;48.776;9.204;2022-07-26T15:08:44;0.65;;;0.50;;
49510;SDS011;35413;48.776;9.204;2022-07-26T15:11:10;0.95;;;0.43;;
49510;SDS011;35413;48.776;9.204;2022-07-26T15:13:35;1.38;;;0.60;;
49510;SDS011;35413;48.776;9.204;2022-07-26T15:16:01;0.85;;;0.60;;
49510;SDS011;35413;48.776;9.204;2022-07-26T15:18:26;2.45;;;0.60;;
49510;SDS011;35413;48.776;9.204;2022-07-26T15:20:52;0.95;;;0.50;;